Time;durP1;ratioP1;P1;durP2;ratioP2;P2;SDS_P1;SDS_P2;PMS_P1;PMS_P2;Temp;Humidity;BMP_temperature;BMP_pressure;BME280_temperature;BME280_humidity;BME280_pressure;Samples;Min_cycle;Max_cycle;Signal;HPM_P1;HPM_P2
2022/09/15 00:01:29;;;;;;;4.25;0.82;;;;;;;-140.72;100.00;52571.47;5029079;28;20112;-66
2022/09/15 00:03:54;;;;;;;1.05;0.60;;;;;;;-140.72;100.00;52630.31;5029911;28;20441;-67
2022/09/15 00:06:20;;;;;;;3.45;0.60;;;;;;;-140.72;100.00;52632.34;5030653;28;20700;-66
2022/09/15 00:08:45;;;;;;;1.83;0.75;;;;;;;-140.72;100.00;52616.09;5029115;28;20049;-66
2022/09/15 00:11:14;;;;;;;2.90;0.40;;;;;;;-140.72;100.00;52610.00;5029309;28;20488;-66
2022/09/15 00:13:40;;;;;;;1.92;0.80;;;;;;;-140.72;100.00;52614.06;5030234;28;20029;-67
2022/09/15 00:16:07;;;;;;;7.57;0.82;;;;;;;-140.72;100.00;52616.09;5030517;28;20448;-68
2022/09/15 00:18:35;;;;;;;0.70;0.45;;;;;;;-140.72;100.00;52614.06;5027241;28;20025;-66
2022/09/15 00:21:07;;;;;;;1.27;0.60;;;;;;;-140.72;100.00;52628.28;5027618;28;20026;-67
2022/09/15 00:23:33;;;;;;;1.25;0.75;;;;;;;-140.72;100.00;52638.41;5024992;28;20111;-67
2022/09/15 00:26:00;;;;;;;0.70;0.52;;;;;;;-140.72;100.00;52599.88;5032359;28;20030;-67
2022/09/15 00:28:25;;;;;;;1.98;1.15;;;;;;;-140.72;100.00;52614.06;5032887;28;20049;-67
2022/09/15 00:30:52;;;;;;;0.90;0.45;;;;;;;-140.72;100.00;52632.34;5033290;28;20096;-67
2022/09/15 00:33:19;;;;;;;2.00;0.73;;;;;;;-140.72;100.00;52636.38;5031179;28;20037;-67
2022/09/15 00:35:49;;;;;;;2.45;0.88;;;;;;;-140.72;100.00;52616.09;5029499;28;20056;-68
2022/09/15 00:38:15;;;;;;;3.38;0.60;;;;;;;-140.72;100.00;52626.25;5027219;28;20021;-67
2022/09/15 00:40:55;;;;;;;2.75;0.52;;;;;;;-140.72;100.00;52573.50;5030585;28;20075;-67
2022/09/15 00:43:40;;;;;;;2.90;0.60;;;;;;;-140.72;100.00;52618.13;5033891;28;20104;-69
2022/09/15 00:46:06;;;;;;;2.25;0.60;;;;;;;-140.72;100.00;52636.38;5026865;28;20440;-67
2022/09/15 00:48:34;;;;;;;1.70;0.65;;;;;;;-140.72;100.00;52618.13;5030662;28;20040;-68
2022/09/15 00:51:02;;;;;;;5.20;0.88;;;;;;;-140.72;100.00;52638.41;5033638;28;20026;-66
2022/09/15 00:53:29;;;;;;;1.00;0.50;;;;;;;-140.72;100.00;52646.53;5032054;28;20025;-67
2022/09/15 00:55:56;;;;;;;1.42;0.60;;;;;;;-140.72;100.00;52640.44;5023889;28;20053;-67
2022/09/15 00:58:36;;;;;;;2.78;0.80;;;;;;;-140.72;100.00;52618.13;5024012;28;20480;-67
2022/09/15 01:01:04;;;;;;;2.70;1.00;;;;;;;-140.72;100.00;52607.97;5023942;28;20268;-67
2022/09/15 01:03:32;;;;;;;2.00;0.90;;;;;;;-140.72;100.00;52577.53;5025714;28;20037;-67
2022/09/15 01:06:03;;;;;;;1.48;0.50;;;;;;;-140.72;100.00;52567.41;5026080;28;20269;-67
2022/09/15 01:08:36;;;;;;;0.73;0.45;;;;;;;-140.72;100.00;52601.91;5026325;28;20053;-67
2022/09/15 01:11:01;;;;;;;1.42;0.82;;;;;;;-140.72;100.00;52577.53;5028884;28;20025;-67
2022/09/15 01:13:28;;;;;;;6.22;1.00;;;;;;;-140.72;100.00;52601.91;5031415;28;20023;-68
2022/09/15 01:16:08;;;;;;;4.07;0.95;;;;;;;-140.72;100.00;52622.19;5029116;28;20037;-68
2022/09/15 01:18:52;;;;;;;5.53;0.77;;;;;;;-140.72;100.00;52628.28;5026537;28;20029;-68
2022/09/15 01:21:48;;;;;;;1.13;0.50;;;;;;;-140.72;100.00;52585.66;5027712;28;20064;-66
2022/09/15 01:24:40;;;;;;;0.70;0.32;;;;;;;-140.72;100.00;52614.06;5030189;28;20363;-67
2022/09/15 01:27:28;;;;;;;3.20;1.02;;;;;;;-140.72;100.00;52622.19;5030779;28;20467;-67
2022/09/15 01:30:15;;;;;;;2.53;1.00;;;;;;;-140.72;100.00;52610.00;5030646;28;20378;-68
2022/09/15 01:33:08;;;;;;;1.38;0.65;;;;;;;-140.72;100.00;52577.53;5027462;28;20033;-67
2022/09/15 01:35:52;;;;;;;1.05;0.70;;;;;;;-140.72;100.00;52630.31;5025299;28;20550;-67
2022/09/15 01:38:47;;;;;;;1.27;0.95;;;;;;;-140.72;100.00;52612.03;5027054;28;20053;-67
2022/09/15 01:41:41;;;;;;;2.10;0.75;;;;;;;-140.72;100.00;52593.78;5028856;28;20032;-67
2022/09/15 01:44:12;;;;;;;1.92;1.02;;;;;;;-140.72;100.00;52593.78;5029854;28;20026;-68
2022/09/15 01:46:45;;;;;;;1.65;0.88;;;;;;;-140.72;100.00;52654.66;5026981;28;20029;-66
2022/09/15 01:49:14;;;;;;;1.90;0.88;;;;;;;-140.72;100.00;52597.84;5029751;28;20155;-67
2022/09/15 01:51:42;;;;;;;3.50;1.90;;;;;;;-140.72;100.00;52654.66;5027334;28;20029;-67
2022/09/15 01:54:09;;;;;;;5.07;1.05;;;;;;;-140.72;100.00;52597.84;5029962;28;20053;-68
2022/09/15 01:56:36;;;;;;;3.63;1.50;;;;;;;-140.72;100.00;52618.13;5028760;28;20037;-67
2022/09/15 01:59:02;;;;;;;1.98;1.10;;;;;;;-140.72;100.00;52624.22;5034070;28;20056;-68
2022/09/15 02:01:57;;;;;;;4.22;1.13;;;;;;;-140.72;100.00;52599.88;5031947;28;20064;-66
2022/09/15 02:04:56;;;;;;;1.85;1.13;;;;;;;-140.72;100.00;52585.66;5029133;28;20444;-68
2022/09/15 02:07:35;;;;;;;1.65;1.02;;;;;;;-140.72;100.00;52573.50;5030910;28;20551;-67
2022/09/15 02:10:16;;;;;;;4.72;1.17;;;;;;;-140.72;100.00;52624.22;5033432;28;20057;-67
2022/09/15 02:12:56;;;;;;;2.08;0.60;;;;;;;-140.72;100.00;52614.06;5034262;28;20025;-68
2022/09/15 02:15:41;;;;;;;3.67;0.63;;;;;;;-140.72;100.00;52660.75;5032231;28;20102;-67
2022/09/15 02:18:07;;;;;;;2.30;0.75;;;;;;;-140.72;100.00;52610.00;5032307;28;20056;-67
2022/09/15 02:20:39;;;;;;;2.33;0.52;;;;;;;-140.72;100.00;52601.91;5024171;28;20791;-67
2022/09/15 02:23:36;;;;;;;2.00;0.75;;;;;;;-140.72;100.00;52620.16;5027348;28;20030;-67
2022/09/15 02:26:07;;;;;;;1.83;0.70;;;;;;;-140.72;100.00;52610.00;5031457;28;20041;-67
2022/09/15 02:28:37;;;;;;;0.70;0.55;;;;;;;-140.72;100.00;52632.34;5027042;28;20025;-67
2022/09/15 02:31:09;;;;;;;4.70;1.40;;;;;;;-140.72;100.00;52593.78;5028257;28;20041;-68
2022/09/15 02:33:40;;;;;;;0.60;0.40;;;;;;;-140.72;100.00;52620.16;5019126;28;20029;-67
2022/09/15 02:36:07;;;;;;;2.35;0.75;;;;;;;-140.72;100.00;52597.84;5025102;28;20025;-67
2022/09/15 02:38:45;;;;;;;1.13;0.70;;;;;;;-140.72;100.00;52603.94;5024168;28;20029;-69
2022/09/15 02:41:12;;;;;;;2.55;0.82;;;;;;;-140.72;100.00;52640.44;5030331;28;20031;-69
2022/09/15 02:43:48;;;;;;;3.47;1.08;;;;;;;-140.72;100.00;52605.94;5033572;28;20382;-67
2022/09/15 02:46:19;;;;;;;1.92;0.88;;;;;;;-140.72;100.00;52634.38;5028998;28;20417;-69
2022/09/15 02:48:44;;;;;;;1.08;0.90;;;;;;;-140.72;100.00;52620.16;5032532;28;20243;-67
2022/09/15 02:51:10;;;;;;;1.40;0.80;;;;;;;-140.72;100.00;52640.44;5028028;28;20025;-68
2022/09/15 02:53:35;;;;;;;2.15;0.90;;;;;;;-140.72;100.00;52622.19;5029239;28;20397;-68
2022/09/15 02:56:04;;;;;;;1.55;1.00;;;;;;;-140.72;100.00;52642.47;5030699;28;20083;-67
2022/09/15 02:58:30;;;;;;;2.85;0.88;;;;;;;-140.72;100.00;52626.25;5031166;28;20393;-66
2022/09/15 03:00:55;;;;;;;2.90;1.35;;;;;;;-140.72;100.00;52650.59;5034694;28;20026;-67
2022/09/15 03:03:21;;;;;;;3.00;1.30;;;;;;;-140.72;100.00;52634.38;5032654;28;20403;-67
2022/09/15 03:05:46;;;;;;;3.88;1.23;;;;;;;-140.72;100.00;52616.09;5034543;28;20595;-67
2022/09/15 03:08:12;;;;;;;2.65;1.35;;;;;;;-140.72;100.00;52646.53;5030955;28;20041;-67
2022/09/15 03:10:38;;;;;;;3.30;1.20;;;;;;;-140.72;100.00;52595.81;5028267;28;20033;-67
2022/09/15 03:13:03;;;;;;;7.45;1.20;;;;;;;-140.72;100.00;52650.59;5027283;28;20033;-66
2022/09/15 03:15:28;;;;;;;2.35;1.15;;;;;;;-140.72;100.00;52650.59;5028158;28;20025;-67
2022/09/15 03:17:54;;;;;;;6.32;1.33;;;;;;;-140.72;100.00;52632.34;5029164;28;20041;-69
2022/09/15 03:20:22;;;;;;;9.57;1.25;;;;;;;-140.72;100.00;52630.31;5027330;28;20038;-67
2022/09/15 03:22:48;;;;;;;4.53;0.95;;;;;;;-140.72;100.00;52599.88;5028490;28;20049;-67
2022/09/15 03:25:15;;;;;;;1.90;1.08;;;;;;;-140.72;100.00;52652.63;5028085;28;20544;-69
2022/09/15 03:27:41;;;;;;;3.80;0.98;;;;;;;-140.72;100.00;52612.03;5027438;28;20068;-69
2022/09/15 03:30:07;;;;;;;1.85;0.77;;;;;;;-140.72;100.00;52622.19;5028600;28;20041;-68
2022/09/15 03:32:33;;;;;;;1.05;0.77;;;;;;;-140.72;100.00;52614.06;5027116;28;20124;-67
2022/09/15 03:34:58;;;;;;;1.10;0.85;;;;;;;-140.72;100.00;52634.38;5024793;28;20032;-67
2022/09/15 03:37:24;;;;;;;2.38;0.82;;;;;;;-140.72;100.00;52597.84;5027763;28;20055;-67
2022/09/15 03:39:49;;;;;;;1.15;0.68;;;;;;;-140.72;100.00;52626.25;5027138;28;20067;-68
2022/09/15 03:42:16;;;;;;;2.22;1.20;;;;;;;-140.72;100.00;52593.78;5026506;28;20459;-66
2022/09/15 03:44:41;;;;;;;3.00;0.80;;;;;;;-140.72;100.00;52620.16;5028083;28;20029;-66
2022/09/15 03:47:07;;;;;;;2.72;0.77;;;;;;;-140.72;100.00;52616.09;5027781;28;20124;-66
2022/09/15 03:49:32;;;;;;;4.20;0.85;;;;;;;-140.72;100.00;52612.03;5026533;28;20029;-65
2022/09/15 03:51:58;;;;;;;1.23;0.80;;;;;;;-140.72;100.00;52634.38;5027397;28;20029;-65
2022/09/15 03:54:24;;;;;;;2.67;1.30;;;;;;;-140.72;100.00;52650.59;5027642;28;20033;-65
2022/09/15 03:56:50;;;;;;;0.93;0.45;;;;;;;-140.72;100.00;52670.88;5025541;28;20496;-67
2022/09/15 03:59:20;;;;;;;2.85;1.00;;;;;;;-140.72;100.00;52638.41;5027465;28;20144;-66
2022/09/15 04:01:46;;;;;;;6.13;1.58;;;;;;;-140.72;100.00;52610.00;5027739;28;20044;-67
2022/09/15 04:04:13;;;;;;;1.42;0.70;;;;;;;-140.72;100.00;52654.66;5026450;28;20710;-69
2022/09/15 04:06:38;;;;;;;1.50;0.70;;;;;;;-140.72;100.00;52672.91;5026801;28;20503;-68
2022/09/15 04:09:04;;;;;;;3.25;0.93;;;;;;;-140.72;100.00;52607.97;5027791;28;20021;-67
2022/09/15 04:11:30;;;;;;;2.30;0.60;;;;;;;-140.72;100.00;52612.03;5026817;28;20033;-67
2022/09/15 04:13:55;;;;;;;1.20;0.80;;;;;;;-140.72;100.00;52612.03;5027893;28;20025;-67
2022/09/15 04:16:22;;;;;;;5.72;1.13;;;;;;;-140.72;100.00;52642.47;5025890;28;20037;-68
2022/09/15 04:18:49;;;;;;;1.92;0.98;;;;;;;-140.72;100.00;52591.75;5027878;28;20029;-68
2022/09/15 04:21:18;;;;;;;1.83;0.55;;;;;;;-140.72;100.00;52616.09;5027082;28;20386;-68
2022/09/15 04:23:44;;;;;;;1.10;0.80;;;;;;;-140.72;100.00;52630.31;5027797;28;20080;-69
2022/09/15 04:26:14;;;;;;;2.90;0.77;;;;;;;-140.72;100.00;52622.19;5026206;28;20033;-69
2022/09/15 04:28:39;;;;;;;2.00;0.70;;;;;;;-140.72;100.00;52612.03;5026722;28;20120;-68
2022/09/15 04:31:11;;;;;;;1.45;0.80;;;;;;;-140.72;100.00;52628.28;5028112;28;20120;-66
2022/09/15 04:33:39;;;;;;;2.70;0.85;;;;;;;-140.72;100.00;52640.44;5023044;28;20021;-68
2022/09/15 04:36:09;;;;;;;3.15;1.00;;;;;;;-140.72;100.00;52577.53;5023985;28;20025;-65
2022/09/15 04:38:35;;;;;;;3.45;0.63;;;;;;;-140.72;100.00;52616.09;5025671;28;20118;-66
2022/09/15 04:41:01;;;;;;;1.75;0.88;;;;;;;-140.72;100.00;52601.91;5029127;28;20120;-66
2022/09/15 04:43:27;;;;;;;3.97;0.80;;;;;;;-140.72;100.00;52610.00;5028167;28;20032;-65
2022/09/15 04:45:53;;;;;;;3.30;1.35;;;;;;;-140.72;100.00;52610.00;5033614;28;20040;-67
2022/09/15 04:48:20;;;;;;;2.22;0.60;;;;;;;-140.72;100.00;52618.13;5026784;28;20489;-67
2022/09/15 04:50:45;;;;;;;3.20;1.08;;;;;;;-140.72;100.00;52605.94;5034350;28;20073;-68
2022/09/15 04:53:11;;;;;;;2.08;0.77;;;;;;;-140.72;100.00;52626.25;5035278;28;20056;-69
2022/09/15 04:55:36;;;;;;;0.63;0.50;;;;;;;-140.72;100.00;52634.38;5022923;28;20026;-69
2022/09/15 04:58:02;;;;;;;1.42;0.55;;;;;;;-140.72;100.00;52638.41;5030314;28;20025;-69
2022/09/15 05:00:28;;;;;;;1.38;0.68;;;;;;;-140.72;100.00;52612.03;5028252;28;20379;-67
2022/09/15 05:02:54;;;;;;;1.13;0.43;;;;;;;-140.72;100.00;52610.00;5030244;28;20095;-67
2022/09/15 05:05:19;;;;;;;1.27;0.63;;;;;;;-140.72;100.00;52601.91;5029613;28;20405;-67
2022/09/15 05:07:48;;;;;;;2.75;0.45;;;;;;;-140.72;100.00;52605.94;5026623;28;20048;-66
2022/09/15 05:10:13;;;;;;;3.05;0.65;;;;;;;-140.72;100.00;52599.88;5025940;28;20469;-67
2022/09/15 05:12:40;;;;;;;1.33;0.70;;;;;;;-140.72;100.00;52654.66;5027399;28;20032;-68
2022/09/15 05:15:07;;;;;;;1.23;0.43;;;;;;;-140.72;100.00;52612.03;5031017;28;20026;-67
2022/09/15 05:17:32;;;;;;;0.65;0.25;;;;;;;-140.72;100.00;52605.94;5029869;28;20030;-67
2022/09/15 05:19:58;;;;;;;1.35;0.50;;;;;;;-140.72;100.00;52605.94;5028309;28;20436;-67
2022/09/15 05:22:24;;;;;;;1.38;0.43;;;;;;;-140.72;100.00;52626.25;5028250;28;20034;-68
2022/09/15 05:24:50;;;;;;;3.35;0.73;;;;;;;-140.72;100.00;52593.78;5027800;28;20029;-67
2022/09/15 05:27:15;;;;;;;1.90;0.50;;;;;;;-140.72;100.00;52601.91;5024777;28;20080;-68
2022/09/15 05:29:41;;;;;;;1.90;0.60;;;;;;;-140.72;100.00;52644.50;5025719;28;20123;-68
2022/09/15 05:32:06;;;;;;;1.27;0.45;;;;;;;-140.72;100.00;52630.31;5029724;28;20108;-67
2022/09/15 05:34:31;;;;;;;2.03;0.57;;;;;;;-140.72;100.00;52607.97;5029850;28;20022;-67
2022/09/15 05:36:57;;;;;;;2.50;0.50;;;;;;;-140.72;100.00;52610.00;5031438;28;20036;-67
2022/09/15 05:39:22;;;;;;;0.52;0.43;;;;;;;-140.72;100.00;52601.91;5026254;28;20069;-67
2022/09/15 05:41:47;;;;;;;1.67;0.57;;;;;;;-140.72;100.00;52616.09;5027338;28;20033;-68
2022/09/15 05:44:13;;;;;;;4.28;1.40;;;;;;;-140.72;100.00;52612.03;5026330;28;20029;-67
2022/09/15 05:46:38;;;;;;;1.13;0.60;;;;;;;-140.72;100.00;52612.03;5026862;28;20087;-68
2022/09/15 05:49:04;;;;;;;3.08;0.75;;;;;;;-140.72;100.00;52607.97;5027985;28;20087;-67
2022/09/15 05:51:29;;;;;;;0.55;0.30;;;;;;;-140.72;100.00;52618.13;5025411;28;20030;-68
2022/09/15 05:53:55;;;;;;;2.67;0.70;;;;;;;-140.72;100.00;52620.16;5025188;28;20021;-67
2022/09/15 05:56:21;;;;;;;0.77;0.40;;;;;;;-140.72;100.00;52630.31;5023607;28;20029;-68
2022/09/15 05:58:47;;;;;;;2.33;0.50;;;;;;;-140.72;100.00;52561.31;5026920;28;20466;-68
2022/09/15 06:01:29;;;;;;;2.83;0.73;;;;;;;-140.72;100.00;52593.78;5025357;28;20028;-69
2022/09/15 06:03:56;;;;;;;1.08;0.40;;;;;;;-140.72;100.00;52599.88;5024563;28;20069;-68
2022/09/15 06:06:23;;;;;;;3.97;0.60;;;;;;;-140.72;100.00;52636.38;5026368;28;20045;-67
2022/09/15 06:08:51;;;;;;;1.33;0.52;;;;;;;-140.72;100.00;52573.50;5025804;28;20087;-68
2022/09/15 06:11:19;;;;;;;1.50;0.73;;;;;;;-140.72;100.00;52620.16;5027337;28;20038;-68
2022/09/15 06:13:45;;;;;;;4.35;0.57;;;;;;;-140.72;100.00;52605.94;5026506;28;20114;-68
2022/09/15 06:16:13;;;;;;;4.18;0.88;;;;;;;-140.72;100.00;52569.44;5025164;28;20030;-69
2022/09/15 06:18:39;;;;;;;5.22;0.90;;;;;;;-140.72;100.00;52589.72;5026499;28;20469;-69
2022/09/15 06:21:11;;;;;;;2.63;0.70;;;;;;;-140.72;100.00;52573.50;5026199;28;20030;-69
2022/09/15 06:23:37;;;;;;;1.02;0.60;;;;;;;-140.72;100.00;52630.31;5025509;28;20037;-68
2022/09/15 06:26:11;;;;;;;1.17;0.70;;;;;;;-140.72;100.00;52561.31;5025271;28;20026;-68
2022/09/15 06:28:38;;;;;;;3.95;1.15;;;;;;;-140.72;100.00;52603.94;5023976;28;20037;-68
2022/09/15 06:31:08;;;;;;;1.58;1.05;;;;;;;-140.72;100.00;52585.66;5025412;28;20022;-67
2022/09/15 06:33:33;;;;;;;1.25;0.43;;;;;;;-140.72;100.00;52577.53;5025296;28;20030;-67
2022/09/15 06:36:01;;;;;;;2.25;0.55;;;;;;;-140.72;100.00;52561.31;5026185;28;20028;-66
2022/09/15 06:38:26;;;;;;;3.40;0.85;;;;;;;-140.72;100.00;52601.91;5025396;28;20022;-67
2022/09/15 06:40:58;;;;;;;6.82;0.95;;;;;;;-140.72;100.00;52547.09;5024975;28;20040;-66
2022/09/15 06:43:24;;;;;;;2.92;0.88;;;;;;;-140.72;100.00;52561.31;5026283;28;20026;-66
2022/09/15 06:45:50;;;;;;;2.15;0.60;;;;;;;-140.72;100.00;52620.16;5028357;28;20033;-67
2022/09/15 06:48:15;;;;;;;2.25;0.90;;;;;;;-140.72;100.00;52577.53;5030562;28;20377;-66
2022/09/15 06:50:41;;;;;;;0.93;0.38;;;;;;;-140.72;100.00;52577.53;5028679;28;20044;-66
2022/09/15 06:53:06;;;;;;;2.30;0.50;;;;;;;-140.72;100.00;52543.03;5028854;28;20426;-65
2022/09/15 06:55:32;;;;;;;1.13;0.57;;;;;;;-140.72;100.00;52534.94;5030463;28;20033;-67
2022/09/15 06:57:58;;;;;;;0.80;0.43;;;;;;;-140.72;100.00;52553.19;5030259;28;20041;-66
2022/09/15 07:00:24;;;;;;;1.33;0.50;;;;;;;-140.72;100.00;52589.72;5028688;28;20466;-66
2022/09/15 07:02:50;;;;;;;3.55;0.55;;;;;;;-140.72;100.00;52591.75;5029515;28;20033;-67
2022/09/15 07:05:15;;;;;;;2.20;0.47;;;;;;;-140.72;100.00;52561.31;5022070;28;20029;-68
2022/09/15 07:07:41;;;;;;;7.50;0.68;;;;;;;-140.72;98.30;52561.31;5027763;28;20077;-67
2022/09/15 07:10:07;;;;;;;1.63;0.55;;;;;;;-140.72;87.70;52583.63;5027758;28;20112;-68
2022/09/15 07:12:32;;;;;;;2.80;0.77;;;;;;;-140.72;76.34;52573.50;5026229;28;20065;-67
2022/09/15 07:14:57;;;;;;;1.92;0.70;;;;;;;-140.72;55.21;52585.66;5028857;28;20063;-66
2022/09/15 07:17:25;;;;;;;0.52;0.30;;;;;;;-140.72;42.60;52545.06;5031087;28;20032;-67
2022/09/15 07:19:50;;;;;;;2.50;0.50;;;;;;;-140.72;33.14;52551.16;5027651;28;20033;-67
2022/09/15 07:22:15;;;;;;;3.63;0.60;;;;;;;-140.72;31.17;52520.72;5027866;28;20034;-68
2022/09/15 07:24:40;;;;;;;1.25;0.45;;;;;;;-140.72;18.32;52563.34;5029750;28;20030;-68
2022/09/15 07:27:07;;;;;;;3.47;0.85;;;;;;;-140.72;4.25;52492.31;5027679;28;20036;-67
2022/09/15 07:29:33;;;;;;;1.77;0.40;;;;;;;-140.72;0.00;52478.13;5029296;28;20032;-67
2022/09/15 07:31:58;;;;;;;1.30;0.70;;;;;;;-140.72;0.00;52543.03;5028817;28;20025;-69
2022/09/15 07:34:24;;;;;;;0.73;0.40;;;;;;;-140.72;0.00;52528.84;5027593;28;20059;-67
2022/09/15 07:36:49;;;;;;;1.85;0.40;;;;;;;-140.72;0.00;52536.97;5030122;28;20047;-67
2022/09/15 07:39:14;;;;;;;1.08;0.40;;;;;;;-140.72;0.00;52541.03;5027409;28;20025;-68
2022/09/15 07:41:40;;;;;;;2.90;0.90;;;;;;;-140.72;0.00;52508.56;5028523;28;20457;-66
2022/09/15 07:44:07;;;;;;;4.65;0.82;;;;;;;-140.72;0.00;52547.09;5027894;28;20029;-65
2022/09/15 07:46:35;;;;;;;0.50;0.30;;;;;;;-140.72;0.00;52591.75;5028665;28;20025;-67
2022/09/15 07:49:01;;;;;;;5.18;0.47;;;;;;;-140.72;14.35;52553.19;5028362;28;20199;-68
2022/09/15 07:51:27;;;;;;;2.33;1.13;;;;;;;-140.72;40.44;52557.25;5028692;28;20028;-65
2022/09/15 07:53:53;;;;;;;1.65;0.80;;;;;;;-140.72;60.42;52545.06;5028560;28;20025;-66
2022/09/15 07:56:18;;;;;;;5.43;0.50;;;;;;;-140.72;70.78;52561.31;5028856;28;20039;-66
2022/09/15 07:58:45;;;;;;;1.65;0.52;;;;;;;-140.72;80.88;52549.13;5027789;28;20032;-67
2022/09/15 08:01:13;;;;;;;3.40;0.90;;;;;;;-140.72;83.75;52575.50;5027363;28;20329;-67
2022/09/15 08:03:41;;;;;;;6.35;0.68;;;;;;;-140.72;79.34;52585.66;5027376;28;20076;-67
2022/09/15 08:06:11;;;;;;;2.40;0.68;;;;;;;-140.72;84.76;52541.03;5027465;28;20122;-68
2022/09/15 08:08:37;;;;;;;1.20;0.50;;;;;;;-140.72;80.73;52543.03;5027434;28;20053;-68
2022/09/15 08:11:08;;;;;;;5.25;0.52;;;;;;;-140.72;73.46;52561.31;5027676;28;20139;-68
2022/09/15 08:13:34;;;;;;;4.32;0.70;;;;;;;-140.72;66.74;52599.88;5027963;28;20029;-68
2022/09/15 08:16:07;;;;;;;1.35;0.73;;;;;;;-140.72;66.64;52520.72;5030526;28;20504;-67
2022/09/15 08:18:34;;;;;;;3.63;0.75;;;;;;;-140.72;66.28;52549.13;5028802;28;20029;-68
2022/09/15 08:21:04;;;;;;;3.72;0.73;;;;;;;-140.72;67.27;52522.75;5028091;28;20422;-68
2022/09/15 08:23:29;;;;;;;1.40;0.50;;;;;;;-140.72;62.17;52539.00;5024736;28;20036;-69
2022/09/15 08:25:54;;;;;;;2.00;0.40;;;;;;;-140.72;49.00;52496.38;5024973;28;20029;-68
2022/09/15 08:28:20;;;;;;;1.63;0.63;;;;;;;-140.72;30.66;52467.97;5027479;28;20045;-68
2022/09/15 08:30:45;;;;;;;3.00;0.77;;;;;;;-140.72;19.86;52520.72;5027150;28;20115;-68
2022/09/15 08:33:10;;;;;;;0.50;0.20;;;;;;;-140.72;0.00;52506.53;5027487;28;20037;-68
2022/09/15 08:35:36;;;;;;;3.20;0.80;;;;;;;-140.72;0.00;52508.56;5028459;28;20040;-66
2022/09/15 08:38:01;;;;;;;2.60;0.45;;;;;;;-140.72;0.00;52532.91;5026788;28;20028;-68
2022/09/15 08:40:36;;;;;;;3.95;0.98;;;;;;;-140.72;0.00;52532.91;5028065;28;20529;-66
2022/09/15 08:43:14;;;;;;;0.47;0.20;;;;;;;-140.72;0.00;52510.59;5024830;28;20283;-68
2022/09/15 08:45:51;;;;;;;1.10;0.30;;;;;;;-140.72;0.00;52488.25;5027813;28;20025;-68
2022/09/15 08:48:20;;;;;;;0.40;0.30;;;;;;;-140.72;0.00;52488.25;5023880;28;20037;-69
2022/09/15 08:50:51;;;;;;;2.80;0.75;;;;;;;-140.72;0.00;52445.66;5026628;28;20029;-66
2022/09/15 08:53:28;;;;;;;1.17;0.47;;;;;;;-140.72;0.00;52496.38;5027637;28;20034;-66
2022/09/15 08:55:54;;;;;;;2.15;0.60;;;;;;;-140.72;0.00;52455.78;5027710;28;20025;-67
2022/09/15 08:58:25;;;;;;;1.00;0.25;;;;;;;-140.72;0.00;52476.09;5026802;28;20041;-65
2022/09/15 09:00:56;;;;;;;0.90;0.38;;;;;;;-140.72;0.00;52463.91;5026686;28;20055;-68
2022/09/15 09:03:40;;;;;;;2.65;0.20;;;;;;;-140.72;0.00;52431.44;5027191;28;20044;-69
2022/09/15 09:06:20;;;;;;;2.00;0.35;;;;;;;-140.72;0.00;52411.16;5023429;28;20497;-68
2022/09/15 09:08:48;;;;;;;0.88;0.30;;;;;;;-140.72;0.00;52439.56;5007589;28;20033;-66
2022/09/15 09:11:41;;;;;;;0.13;0.10;;;;;;;-140.72;0.00;52417.25;5007523;28;20489;-66
2022/09/15 09:14:22;;;;;;;3.42;0.45;;;;;;;-140.72;0.00;52423.31;5005500;28;20509;-66
2022/09/15 09:16:55;;;;;;;2.38;0.30;;;;;;;-140.72;0.00;52449.72;5009820;28;20033;-67
2022/09/15 09:19:39;;;;;;;3.53;0.30;;;;;;;-140.72;0.00;52415.22;5006037;28;20063;-66
2022/09/15 09:22:12;;;;;;;1.17;0.20;;;;;;;-140.72;0.00;52423.31;5006467;28;20029;-66
2022/09/15 09:24:43;;;;;;;2.97;0.30;;;;;;;-140.72;0.00;52378.69;5008037;28;20030;-67
2022/09/15 09:27:13;;;;;;;0.50;0.10;;;;;;;-140.72;0.00;52415.22;5005797;28;20036;-67
2022/09/15 09:29:44;;;;;;;3.10;0.47;;;;;;;-140.72;0.00;52370.56;5007707;28;20057;-66
2022/09/15 09:32:20;;;;;;;0.28;0.15;;;;;;;-140.72;0.00;52405.06;5004834;28;20029;-68
2022/09/15 09:35:00;;;;;;;1.60;0.32;;;;;;;-140.72;0.00;52390.84;5006697;28;20056;-67
2022/09/15 09:37:27;;;;;;;0.77;0.40;;;;;;;-140.72;0.00;52421.28;5007097;28;20037;-69
2022/09/15 09:39:52;;;;;;;0.15;0.10;;;;;;;-140.72;0.00;52398.97;5006548;28;20061;-67
2022/09/15 09:42:18;;;;;;;1.70;0.50;;;;;;;-140.72;0.00;52407.09;5007125;28;20065;-67
2022/09/15 09:44:45;;;;;;;2.92;0.43;;;;;;;-140.72;0.00;52435.50;5006714;28;20065;-68
2022/09/15 09:47:12;;;;;;;1.60;0.38;;;;;;;-140.72;0.00;52356.38;5005631;28;20503;-68
2022/09/15 09:49:41;;;;;;;1.00;0.22;;;;;;;-140.72;0.00;52405.06;5007208;28;20033;-67
2022/09/15 09:52:07;;;;;;;1.35;0.30;;;;;;;-140.72;0.00;52376.66;5007081;28;20029;-68
2022/09/15 09:54:34;;;;;;;1.98;0.40;;;;;;;-140.72;0.00;52382.75;5006123;28;20034;-68
2022/09/15 09:57:21;;;;;;;0.63;0.13;;;;;;;-140.72;0.00;52366.50;5007841;28;20041;-68
2022/09/15 09:59:50;;;;;;;0.85;0.30;;;;;;;-140.72;0.00;52370.56;5006550;28;20057;-68
2022/09/15 10:02:26;;;;;;;0.50;0.30;;;;;;;-140.72;0.00;52368.53;5003824;28;20382;-66
2022/09/15 10:05:16;;;;;;;1.08;0.30;;;;;;;-140.72;0.00;52350.28;5006709;28;20060;-68
2022/09/15 10:07:42;;;;;;;1.17;0.20;;;;;;;-140.72;0.00;52334.03;5017075;28;20046;-68
2022/09/15 10:10:31;;;;;;;0.10;0.10;;;;;;;-140.72;0.00;52342.16;5026253;28;20170;-66
2022/09/15 10:12:57;;;;;;;1.08;0.38;;;;;;;-140.72;0.00;52321.88;5027544;28;20040;-67
2022/09/15 10:15:26;;;;;;;0.95;0.40;;;;;;;-140.72;0.00;52293.47;5026534;28;20025;-67
2022/09/15 10:17:54;;;;;;;1.95;0.30;;;;;;;-140.72;0.00;52368.53;5034478;28;20067;-68
2022/09/15 10:20:52;;;;;;;0.45;0.20;;;;;;;-140.72;0.00;52358.41;5032617;28;20060;-67
2022/09/15 10:23:17;;;;;;;0.63;0.30;;;;;;;-140.72;0.00;52277.22;5031247;28;20076;-66
2022/09/15 10:25:44;;;;;;;0.52;0.20;;;;;;;-140.72;0.00;52303.59;5029885;28;20512;-68
2022/09/15 10:28:16;;;;;;;0.88;0.25;;;;;;;-140.72;0.00;52313.75;5028791;28;20033;-67
2022/09/15 10:31:06;;;;;;;0.98;0.30;;;;;;;-140.72;0.00;52317.81;5028898;28;20449;-68
2022/09/15 10:33:35;;;;;;;1.48;0.30;;;;;;;-140.72;0.00;52309.69;5029728;28;20104;-68
2022/09/15 10:36:02;;;;;;;0.10;0.00;;;;;;;-140.72;0.00;52307.66;5029045;28;20039;-67
2022/09/15 10:38:37;;;;;;;0.30;0.10;;;;;;;-140.72;0.00;52307.66;5028902;28;20870;-68
2022/09/15 10:41:08;;;;;;;0.40;0.15;;;;;;;-140.72;0.00;52311.72;5029364;28;20029;-68
2022/09/15 10:44:00;;;;;;;0.38;0.10;;;;;;;-140.72;0.00;52228.53;5029622;28;20036;-67
2022/09/15 10:46:30;;;;;;;0.40;0.10;;;;;;;-140.72;0.00;52269.13;5030065;28;20025;-68
2022/09/15 10:48:58;;;;;;;1.30;0.15;;;;;;;-140.72;0.00;52228.53;5031626;28;20120;-68
2022/09/15 10:51:32;;;;;;;2.47;0.38;;;;;;;-140.72;0.00;52187.97;5029327;28;20041;-67
2022/09/15 10:54:32;;;;;;;0.85;0.20;;;;;;;-140.72;0.00;52261.00;5025973;28;20363;-66
2022/09/15 10:57:24;;;;;;;0.47;0.13;;;;;;;-140.72;0.00;52263.03;5026943;28;20032;-67
2022/09/15 11:00:13;;;;;;;1.38;0.22;;;;;;;-140.72;0.00;52291.44;5026992;28;20088;-67
2022/09/15 11:03:10;;;;;;;0.52;0.05;;;;;;;-140.72;0.00;52303.59;5028994;28;20029;-67
2022/09/15 11:06:05;;;;;;;0.28;0.10;;;;;;;-140.72;0.00;52315.78;5029918;28;20359;-67
2022/09/15 11:08:58;;;;;;;0.65;0.17;;;;;;;-140.72;0.00;52368.53;5029271;28;20058;-67
2022/09/15 11:11:46;;;;;;;1.23;0.40;;;;;;;-140.72;0.00;52334.03;5028882;28;20512;-67
2022/09/15 11:14:11;;;;;;;0.60;0.10;;;;;;;-140.72;0.00;52321.88;5028948;28;20145;-67
2022/09/15 11:16:46;;;;;;;0.98;0.20;;;;;;;-140.72;0.00;52323.91;5028791;28;20053;-66
2022/09/15 11:19:43;;;;;;;1.73;0.30;;;;;;;-140.72;0.00;52305.63;5027865;28;20067;-66
2022/09/15 11:22:17;;;;;;;1.33;0.20;;;;;;;-140.72;0.00;52334.03;5027933;28;20041;-66
2022/09/15 11:25:00;;;;;;;0.43;0.25;;;;;;;-140.72;0.00;52366.50;5027880;28;20025;-68
2022/09/15 11:27:46;;;;;;;2.25;0.20;;;;;;;-140.72;0.00;52374.63;5030888;28;20045;-67
2022/09/15 11:30:23;;;;;;;0.65;0.22;;;;;;;-140.72;0.00;52334.03;5028568;28;20037;-66